createdAt,value
2023-04-19T00:00:47.949Z,12.70
2023-04-19T00:04:55.876Z,12.40
2023-04-19T00:09:01.824Z,12.52
2023-04-19T00:13:10.548Z,13.20
2023-04-19T00:17:13.624Z,14.15
2023-04-19T00:21:18.322Z,11.63
2023-04-19T00:25:24.925Z,13.03
2023-04-19T00:29:30.024Z,13.07
2023-04-19T00:33:36.005Z,12.67
2023-04-19T00:37:40.431Z,11.60
2023-04-19T00:41:45.669Z,11.68
2023-04-19T00:45:52.106Z,10.25
2023-04-19T00:49:57.783Z,13.25
2023-04-19T00:54:03.947Z,14.10
2023-04-19T00:58:08.395Z,13.55
2023-04-19T01:02:11.882Z,13.57
2023-04-19T01:06:17.255Z,13.98
2023-04-19T01:10:21.696Z,13.65
2023-04-19T01:14:24.727Z,15.32
2023-04-19T01:18:32.909Z,14.38
2023-04-19T01:22:38.129Z,13.15
2023-04-19T01:26:41.178Z,14.60
2023-04-19T01:30:44.716Z,13.50
2023-04-19T01:34:51.097Z,13.77
2023-04-19T01:38:55.578Z,14.20
2023-04-19T01:43:03.594Z,13.70
2023-04-19T01:47:07.028Z,14.30
2023-04-19T01:51:14.155Z,14.43
2023-04-19T01:55:19.273Z,15.70
2023-04-19T01:59:22.275Z,15.07
2023-04-19T02:03:27.765Z,15.50
2023-04-19T02:07:33.702Z,14.37
2023-04-19T02:11:41.083Z,14.68
2023-04-19T02:15:44.092Z,14.30
2023-04-19T02:19:49.452Z,15.38
2023-04-19T02:23:52.554Z,15.40
2023-04-19T02:27:56.951Z,16.20
2023-04-19T02:32:01.294Z,17.10
2023-04-19T02:36:04.551Z,16.60
2023-04-19T02:40:09.401Z,14.70
2023-04-19T02:44:15.146Z,15.90
2023-04-19T02:48:22.529Z,16.55
2023-04-19T02:52:27.200Z,15.30
2023-04-19T02:56:30.205Z,17.67
2023-04-19T03:00:37.594Z,17.77
2023-04-19T03:04:40.984Z,16.63
2023-04-19T03:08:43.993Z,16.55
2023-04-19T03:12:50.550Z,18.07
2023-04-19T03:16:55.198Z,16.45
2023-04-19T03:20:58.471Z,16.33
2023-04-19T03:25:01.477Z,16.90
2023-04-19T03:29:07.482Z,16.50
2023-04-19T03:33:13.696Z,16.30
2023-04-19T03:37:17.202Z,15.20
2023-04-19T03:41:20.852Z,16.87
2023-04-19T03:45:28.194Z,20.73
2023-04-19T03:49:33.839Z,19.43
2023-04-19T03:53:37.683Z,19.13
2023-04-19T03:57:41.107Z,18.27
2023-04-19T04:01:46.090Z,17.97
2023-04-19T04:05:52.491Z,19.63
2023-04-19T04:09:55.521Z,19.67
2023-04-19T04:13:58.592Z,22.10
2023-04-19T04:18:03.968Z,18.80
2023-04-19T04:22:09.754Z,19.75
2023-04-19T04:26:17.427Z,17.47
2023-04-19T04:30:20.558Z,17.67
2023-04-19T04:34:24.688Z,20.93
2023-04-19T04:38:37.693Z,20.07
2023-04-19T04:42:41.409Z,19.40
2023-04-19T04:46:44.456Z,19.50
2023-04-19T04:50:57.508Z,19.35
2023-04-19T04:55:02.067Z,17.25
2023-04-19T04:59:06.207Z,19.03
2023-04-19T05:03:09.292Z,19.50
2023-04-19T05:07:15.407Z,16.95
2023-04-19T05:11:21.023Z,17.77
2023-04-19T05:15:28.942Z,19.25
2023-04-19T05:19:34.720Z,18.52
2023-04-19T05:23:38.483Z,16.48
2023-04-19T05:27:43.010Z,18.70
2023-04-19T05:31:51.043Z,18.40
2023-04-19T05:35:55.154Z,17.87
2023-04-19T05:40:00.776Z,18.45
2023-04-19T05:44:07.471Z,17.10
2023-04-19T05:48:10.590Z,19.42
2023-04-19T05:52:16.125Z,15.32
2023-04-19T05:56:22.196Z,17.00
2023-04-19T06:00:27.796Z,16.17
2023-04-19T06:04:34.092Z,17.55
2023-04-19T06:08:37.330Z,15.93
2023-04-19T06:12:40.746Z,17.13
2023-04-19T06:16:47.819Z,16.13
2023-04-19T06:20:50.905Z,16.00
2023-04-19T06:24:55.349Z,15.90
2023-04-19T06:28:59.199Z,15.35
2023-04-19T06:33:11.096Z,15.88
2023-04-19T06:37:14.771Z,14.55
2023-04-19T06:41:18.437Z,14.85
2023-04-19T06:45:22.195Z,14.07
2023-04-19T06:49:26.579Z,13.55
2023-04-19T06:53:29.758Z,13.80
2023-04-19T06:57:35.671Z,13.82
2023-04-19T07:01:39.226Z,13.55
2023-04-19T07:05:43.956Z,15.43
2023-04-19T07:09:50.954Z,13.75
2023-04-19T07:13:54.346Z,13.43
2023-04-19T07:17:57.370Z,13.50
2023-04-19T07:22:03.318Z,13.65
2023-04-19T07:26:06.417Z,12.70
2023-04-19T07:30:13.189Z,13.07
2023-04-19T07:34:16.469Z,13.88
2023-04-19T07:38:25.148Z,14.20
2023-04-19T07:42:30.688Z,13.48
2023-04-19T07:46:35.947Z,14.88
2023-04-19T07:50:39.106Z,15.02
2023-04-19T07:54:43.556Z,15.32
2023-04-19T07:58:50.698Z,15.50
2023-04-19T08:02:58.303Z,15.35
2023-04-19T08:07:05.043Z,14.52
2023-04-19T08:11:09.445Z,18.02
2023-04-19T08:15:41.148Z,15.80
2023-04-19T08:19:39.685Z,16.60
2023-04-19T08:23:48.378Z,15.65
2023-04-19T08:27:53.005Z,15.90
2023-04-19T08:31:56.313Z,16.17
2023-04-19T08:35:59.412Z,15.75
2023-04-19T08:40:02.765Z,15.05
2023-04-19T08:44:08.665Z,15.82
2023-04-19T08:48:14.770Z,15.70
2023-04-19T08:52:19.165Z,15.45
2023-04-19T08:56:34.916Z,16.38
2023-04-19T09:00:41.390Z,15.00
2023-04-19T09:04:44.664Z,16.45
2023-04-19T09:08:52.534Z,14.85
2023-04-19T09:13:05.187Z,16.05
2023-04-19T09:17:19.023Z,14.70
2023-04-19T09:21:29.733Z,15.15
2023-04-19T09:25:52.392Z,15.07
2023-04-19T09:29:58.842Z,15.98
2023-04-19T09:34:24.242Z,13.50
2023-04-19T09:38:28.487Z,13.80
2023-04-19T09:46:54.086Z,13.23
2023-04-19T09:51:05.822Z,14.25
2023-04-19T09:55:24.928Z,15.07
2023-04-19T09:59:30.344Z,15.40
2023-04-19T10:03:36.610Z,11.27
2023-04-19T10:07:41.856Z,13.23
2023-04-19T10:11:54.431Z,14.03
2023-04-19T10:16:15.683Z,15.70
2023-04-19T10:20:26.165Z,16.25
2023-04-19T10:24:33.071Z,18.00
2023-04-19T10:28:38.358Z,17.23
2023-04-19T10:32:42.484Z,15.73
2023-04-19T10:36:48.941Z,16.95
2023-04-19T10:41:04.262Z,14.10
2023-04-19T10:45:33.074Z,15.37
2023-04-19T10:49:49.022Z,16.70
2023-04-19T10:53:59.016Z,18.53
2023-04-19T10:58:09.257Z,17.33
2023-04-19T11:02:36.437Z,13.73
2023-04-19T11:06:57.410Z,11.03
2023-04-19T11:11:00.828Z,12.07
2023-04-19T11:15:09.513Z,15.07
2023-04-19T11:19:16.297Z,11.25
2023-04-19T11:23:20.053Z,13.15
2023-04-19T11:27:23.134Z,14.13
2023-04-19T11:31:27.671Z,10.52
2023-04-19T11:35:31.526Z,11.48
2023-04-19T11:39:34.546Z,13.82
2023-04-19T11:43:41.376Z,10.48
2023-04-19T11:47:56.901Z,12.45
2023-04-19T11:52:03.111Z,8.73
2023-04-19T11:56:10.550Z,11.52
2023-04-19T12:00:15.116Z,10.17
2023-04-19T12:04:23.624Z,10.27
2023-04-19T12:08:37.820Z,9.55
2023-04-19T12:12:43.665Z,9.48
2023-04-19T12:16:50.188Z,8.10
2023-04-19T12:20:55.398Z,7.32
2023-04-19T12:24:58.541Z,7.70
2023-04-19T12:29:02.853Z,7.93
2023-04-19T12:33:07.120Z,8.30
2023-04-19T12:37:11.967Z,7.30
2023-04-19T12:41:15.320Z,6.05
2023-04-19T12:45:29.112Z,5.65
2023-04-19T12:49:34.448Z,5.28
2023-04-19T12:53:39.199Z,4.68
2023-04-19T12:57:46.090Z,4.43
2023-04-19T13:01:49.139Z,4.43
2023-04-19T13:05:53.251Z,4.47
2023-04-19T13:09:59.969Z,4.20
2023-04-19T13:14:08.764Z,3.53
2023-04-19T13:18:16.893Z,3.60
2023-04-19T13:22:19.910Z,4.20
2023-04-19T13:26:24.550Z,3.83
2023-04-19T13:30:28.130Z,3.55
2023-04-19T13:34:31.249Z,3.03
2023-04-19T13:38:34.338Z,3.15
2023-04-19T13:42:39.084Z,3.70
2023-04-19T13:46:44.905Z,3.03
2023-04-19T13:50:51.104Z,2.97
2023-04-19T13:54:57.267Z,2.30
2023-04-19T13:59:04.413Z,2.60
2023-04-19T14:03:09.861Z,3.05
2023-04-19T14:07:14.914Z,2.72
2023-04-19T14:11:35.225Z,2.00
2023-04-19T14:15:40.389Z,2.40
2023-04-19T14:19:43.802Z,2.22
2023-04-19T14:23:47.366Z,2.50
2023-04-19T14:27:50.680Z,2.22
2023-04-19T14:31:56.111Z,2.55
2023-04-19T14:35:59.163Z,2.38
2023-04-19T14:40:02.238Z,2.30
2023-04-19T14:44:09.236Z,3.00
2023-04-19T14:48:15.407Z,4.18
2023-04-19T14:52:22.614Z,5.30
2023-04-19T14:56:25.811Z,8.75
2023-04-19T15:00:28.863Z,8.05
2023-04-19T15:04:37.397Z,11.48
2023-04-19T15:08:47.066Z,5.25
2023-04-19T15:12:50.049Z,4.20
2023-04-19T15:16:53.116Z,4.65
2023-04-19T15:21:00.313Z,4.35
2023-04-19T15:25:08.330Z,3.17
2023-04-19T15:29:13.488Z,4.60
2023-04-19T15:33:16.636Z,3.58
2023-04-19T15:37:21.162Z,2.95
2023-04-19T15:41:25.225Z,2.92
2023-04-19T15:45:28.627Z,2.50
2023-04-19T15:49:36.633Z,2.78
2023-04-19T15:53:41.313Z,2.55
2023-04-19T15:57:50.776Z,2.80
2023-04-19T16:01:53.931Z,2.60
2023-04-19T16:05:57.004Z,2.90
2023-04-19T16:10:03.421Z,3.58
2023-04-19T16:14:06.501Z,2.65
2023-04-19T16:18:12.516Z,2.70
2023-04-19T16:22:15.751Z,3.28
2023-04-19T16:26:20.162Z,2.80
2023-04-19T16:30:23.613Z,3.00
2023-04-19T16:34:28.115Z,2.80
2023-04-19T16:38:36.963Z,2.72
2023-04-19T16:42:41.856Z,2.83
2023-04-19T16:46:44.893Z,2.80
2023-04-19T16:50:50.457Z,2.90
2023-04-19T16:54:55.214Z,2.80
2023-04-19T16:59:03.465Z,2.40
2023-04-19T17:03:10.953Z,3.17
2023-04-19T17:07:14.255Z,2.90
2023-04-19T17:11:19.772Z,2.60
2023-04-19T17:15:24.435Z,3.75
2023-04-19T17:19:31.470Z,3.25
2023-04-19T17:23:37.237Z,2.80
2023-04-19T17:27:45.580Z,3.30
2023-04-19T17:31:56.178Z,2.70
2023-04-19T17:36:01.501Z,2.58
2023-04-19T17:40:07.298Z,2.80
2023-04-19T17:44:13.164Z,2.65
2023-04-19T17:48:20.201Z,2.90
2023-04-19T17:52:32.126Z,2.65
2023-04-19T17:56:38.750Z,2.40
2023-04-19T18:00:41.802Z,2.88
2023-04-19T18:04:46.450Z,2.85
2023-04-19T18:08:49.970Z,2.60
2023-04-19T18:12:53.884Z,2.58
2023-04-19T18:16:58.517Z,3.33
2023-04-19T18:21:10.021Z,2.50
2023-04-19T18:25:13.178Z,3.33
2023-04-19T18:29:16.749Z,2.97
2023-04-19T18:33:22.385Z,3.17
2023-04-19T18:37:28.763Z,2.85
2023-04-19T18:41:31.820Z,2.47
2023-04-19T18:45:34.965Z,3.20
2023-04-19T18:49:38.083Z,2.93
2023-04-19T18:53:47.511Z,3.35
2023-04-19T18:57:51.532Z,3.00
2023-04-19T19:01:56.772Z,4.50
2023-04-19T19:06:00.642Z,3.93
2023-04-19T19:14:21.552Z,3.10
2023-04-19T19:18:27.632Z,3.80
2023-04-19T19:22:31.161Z,3.53
2023-04-19T19:26:35.598Z,3.13
2023-04-19T19:30:46.125Z,3.53
2023-04-19T19:38:55.988Z,3.43
2023-04-19T19:43:00.859Z,3.57
2023-04-19T19:47:09.372Z,3.03
2023-04-19T19:51:42.211Z,3.30
2023-04-19T19:55:37.211Z,4.73
2023-04-19T19:59:51.345Z,3.90
2023-04-19T20:03:58.731Z,3.70
2023-04-19T20:08:10.163Z,5.30
2023-04-19T20:12:16.690Z,5.73
2023-04-19T20:16:21.230Z,5.47
2023-04-19T20:20:27.134Z,4.20
2023-04-19T20:24:32.283Z,4.13
2023-04-19T20:28:36.686Z,4.03
2023-04-19T20:32:44.225Z,4.43
2023-04-19T20:36:47.762Z,4.53
2023-04-19T20:40:51.063Z,4.07
2023-04-19T20:44:54.077Z,4.83
2023-04-19T20:49:02.821Z,5.20
2023-04-19T20:53:07.110Z,4.80
2023-04-19T20:57:12.336Z,4.87
2023-04-19T21:01:21.228Z,4.47
2023-04-19T21:05:30.056Z,4.37
2023-04-19T21:09:33.116Z,4.50
2023-04-19T21:13:36.286Z,4.50
2023-04-19T21:17:39.412Z,4.10
2023-04-19T21:21:44.120Z,4.20
2023-04-19T21:25:47.730Z,4.90
2023-04-19T21:29:55.715Z,4.50
2023-04-19T21:33:59.026Z,4.47
2023-04-19T21:38:03.737Z,5.23
2023-04-19T21:42:08.591Z,5.00
2023-04-19T21:46:14.271Z,5.63
2023-04-19T21:50:27.316Z,4.97
2023-04-19T21:54:34.219Z,5.40
2023-04-19T21:58:38.398Z,4.90
2023-04-19T22:02:41.646Z,5.57
2023-04-19T22:06:46.597Z,5.37
2023-04-19T22:10:51.494Z,5.30
2023-04-19T22:15:01.809Z,6.17
2023-04-19T22:19:05.213Z,5.80
2023-04-19T22:23:08.568Z,5.93
2023-04-19T22:27:13.195Z,4.93
2023-04-19T22:31:16.515Z,5.33
2023-04-19T22:35:23.785Z,5.50
2023-04-19T22:39:27.232Z,5.50
2023-04-19T22:43:34.573Z,6.70
2023-04-19T22:47:42.656Z,7.37
2023-04-19T22:51:48.411Z,5.93
2023-04-19T22:55:51.545Z,5.43
2023-04-19T22:59:56.112Z,6.13
2023-04-19T23:03:59.815Z,5.33
2023-04-19T23:08:05.855Z,5.60
2023-04-19T23:12:09.085Z,5.00
2023-04-19T23:16:15.853Z,5.43
2023-04-19T23:20:19.062Z,5.87
2023-04-19T23:24:26.044Z,6.13
2023-04-19T23:28:32.621Z,6.20
2023-04-19T23:32:38.259Z,6.60
2023-04-19T23:36:45.559Z,5.93
2023-04-19T23:40:49.753Z,6.37
2023-04-19T23:44:55.066Z,6.40
2023-04-19T23:48:59.482Z,6.20
2023-04-19T23:53:07.342Z,6.37
2023-04-19T23:57:11.226Z,6.60
